createdAt,value
2016-09-01T00:00:33.799Z,960.02
2016-09-01T00:01:34.402Z,960.05
2016-09-01T00:02:18.185Z,960.04
2016-09-01T00:03:19.513Z,960.04
2016-09-01T00:04:31.866Z,960.11
2016-09-01T00:05:27.385Z,960.05
2016-09-01T00:06:23.042Z,960.04
2016-09-01T00:07:24.465Z,960.03
2016-09-01T00:08:19.300Z,960.04
2016-09-01T00:09:21.297Z,960.10
2016-09-01T00:10:24.906Z,960.08
2016-09-01T00:11:34.168Z,960.05
2016-09-01T00:12:32.545Z,960.05
2016-09-01T00:13:30.179Z,960.04
2016-09-01T00:14:12.809Z,960.07
2016-09-01T00:15:18.692Z,960.03
2016-09-01T00:16:33.699Z,960.03
2016-09-01T00:17:34.569Z,960.02
2016-09-01T00:18:28.695Z,960.08
2016-09-01T00:19:20.972Z,960.07
2016-09-01T00:20:26.961Z,960.06
2016-09-01T00:21:24.225Z,960.01
2016-09-01T00:22:27.390Z,960.03
2016-09-01T00:23:33.161Z,960.05
2016-09-01T00:24:34.071Z,960.03
2016-09-01T00:25:25.560Z,960.02
2016-09-01T00:26:33.851Z,960.05
2016-09-01T00:27:22.203Z,960.06
2016-09-01T00:28:32.771Z,960.09
2016-09-01T00:30:00.119Z,960.07
2016-09-01T00:30:33.507Z,960.04
2016-09-01T00:31:24.235Z,960.07
2016-09-01T00:32:28.453Z,960.06
2016-09-01T00:33:19.559Z,960.10
2016-09-01T00:34:33.345Z,960.11
2016-09-01T00:35:22.527Z,960.11
2016-09-01T00:36:21.508Z,960.07
2016-09-01T00:37:20.930Z,960.10
2016-09-01T00:38:31.719Z,960.10
2016-09-01T00:39:27.594Z,960.10
2016-09-01T00:40:33.000Z,960.09
2016-09-01T00:41:20.638Z,960.07
2016-09-01T00:42:23.616Z,960.04
2016-09-01T00:43:35.377Z,960.09
2016-09-01T00:44:24.078Z,960.00
2016-09-01T00:45:30.529Z,960.04
2016-09-01T00:46:22.392Z,960.01
2016-09-01T00:47:25.189Z,960.07
2016-09-01T00:48:24.150Z,960.03
2016-09-01T00:49:26.483Z,960.02
2016-09-01T00:50:26.490Z,960.01
2016-09-01T00:51:34.461Z,960.04
2016-09-01T00:52:19.014Z,960.05
2016-09-01T00:53:27.161Z,960.04
2016-09-01T00:54:33.521Z,960.03
2016-09-01T00:55:22.803Z,960.03
2016-09-01T00:56:29.013Z,960.10
2016-09-01T00:57:34.841Z,960.09
2016-09-01T00:58:28.010Z,960.10
2016-09-01T00:59:21.273Z,960.07
2016-09-01T01:00:27.561Z,960.07
2016-09-01T01:02:29.812Z,960.11
2016-09-01T01:03:29.008Z,960.08
2016-09-01T01:04:23.981Z,960.09
2016-09-01T01:05:34.511Z,960.04
2016-09-01T01:06:27.162Z,960.04
2016-09-01T01:07:29.522Z,960.03
2016-09-01T01:08:45.326Z,960.03
2016-09-01T01:09:25.567Z,960.03
2016-09-01T01:10:32.738Z,960.04
2016-09-01T01:11:21.574Z,960.02
2016-09-01T01:12:29.328Z,960.06
2016-09-01T01:13:19.484Z,960.05
2016-09-01T01:14:24.558Z,959.99
2016-09-01T01:15:33.749Z,960.05
2016-09-01T01:16:27.917Z,960.01
2016-09-01T01:17:18.562Z,960.00
2016-09-01T01:18:36.855Z,959.99
2016-09-01T01:19:37.378Z,959.99
2016-09-01T01:20:27.776Z,959.98
2016-09-01T01:21:32.971Z,960.00
2016-09-01T01:22:23.105Z,960.01
2016-09-01T01:23:24.146Z,960.01
2016-09-01T01:24:24.868Z,959.99
2016-09-01T01:25:32.728Z,960.06
2016-09-01T01:26:20.088Z,960.03
2016-09-01T01:27:25.989Z,960.06
2016-09-01T01:28:22.510Z,960.06
2016-09-01T01:29:33.559Z,960.08
2016-09-01T01:30:34.606Z,960.03
2016-09-01T01:31:25.229Z,960.05
2016-09-01T01:32:23.961Z,960.08
2016-09-01T01:33:28.843Z,960.08
2016-09-01T01:34:24.328Z,960.05
2016-09-01T01:35:28.054Z,960.04
2016-09-01T01:36:24.874Z,960.05
2016-09-01T01:37:28.384Z,960.01
2016-09-01T01:38:25.981Z,960.05
2016-09-01T01:39:32.605Z,960.05
2016-09-01T01:40:33.557Z,960.03
2016-09-01T01:41:27.142Z,960.01
2016-09-01T01:42:18.196Z,959.99
2016-09-01T01:43:32.574Z,960.00
2016-09-01T01:44:21.721Z,960.03
2016-09-01T01:45:28.625Z,959.99
2016-09-01T01:46:19.773Z,960.01
2016-09-01T01:47:26.912Z,959.98
2016-09-01T01:48:22.557Z,959.99
2016-09-01T01:49:22.915Z,959.99
2016-09-01T01:50:33.110Z,960.01
2016-09-01T01:51:45.729Z,960.03
2016-09-01T01:52:35.009Z,960.01
2016-09-01T01:53:32.960Z,960.03
2016-09-01T01:54:28.093Z,960.02
2016-09-01T01:55:29.080Z,959.98
2016-09-01T01:56:21.258Z,960.00
2016-09-01T01:57:39.486Z,959.95
2016-09-01T01:58:57.313Z,959.97
2016-09-01T01:59:19.619Z,959.95
2016-09-01T02:00:23.375Z,959.95
2016-09-01T02:01:19.427Z,959.99
2016-09-01T02:02:43.419Z,959.92
2016-09-01T02:03:29.812Z,959.99
2016-09-01T02:04:38.919Z,960.01
2016-09-01T02:05:34.607Z,959.97
2016-09-01T02:06:17.968Z,959.98
2016-09-01T02:07:18.507Z,959.97
2016-09-01T02:08:34.029Z,959.98
2016-09-01T02:09:26.678Z,959.98
2016-09-01T02:10:23.273Z,959.97
2016-09-01T02:11:28.213Z,959.98
2016-09-01T02:12:32.518Z,960.00
2016-09-01T02:13:22.231Z,960.00
2016-09-01T02:14:32.574Z,959.98
2016-09-01T02:15:33.540Z,959.98
2016-09-01T02:16:31.916Z,960.02
2016-09-01T02:17:27.532Z,960.02
2016-09-01T02:18:32.632Z,960.02
2016-09-01T02:19:32.424Z,960.05
2016-09-01T02:20:27.524Z,960.02
2016-09-01T02:21:20.588Z,960.08
2016-09-01T02:22:26.057Z,960.05
2016-09-01T02:23:28.103Z,960.06
2016-09-01T02:24:27.376Z,960.07
2016-09-01T02:25:29.557Z,960.06
2016-09-01T02:26:33.666Z,960.08
2016-09-01T02:27:20.148Z,960.05
2016-09-01T02:28:21.608Z,960.04
2016-09-01T02:29:28.235Z,960.00
2016-09-01T02:30:22.048Z,960.04
2016-09-01T02:32:34.587Z,960.03
2016-09-01T02:33:19.316Z,960.03
2016-09-01T02:34:27.488Z,959.97
2016-09-01T02:35:33.944Z,960.01
2016-09-01T02:36:25.619Z,959.99
2016-09-01T02:37:22.136Z,960.04
2016-09-01T02:38:27.333Z,960.00
2016-09-01T02:39:22.949Z,960.00
2016-09-01T02:40:26.709Z,960.01
2016-09-01T02:41:26.790Z,959.98
2016-09-01T02:43:18.508Z,960.00
2016-09-01T02:43:23.846Z,960.01
2016-09-01T02:44:20.700Z,960.01
2016-09-01T02:45:28.016Z,960.02
2016-09-01T02:46:32.879Z,960.01
2016-09-01T02:47:24.548Z,960.00
2016-09-01T02:48:26.694Z,959.98
2016-09-01T02:49:41.127Z,959.99
2016-09-01T02:50:18.978Z,960.01
2016-09-01T02:51:27.080Z,960.00
2016-09-01T02:52:37.548Z,960.01
2016-09-01T02:53:23.148Z,959.98
2016-09-01T02:54:28.382Z,960.00
2016-09-01T02:55:27.310Z,960.05
2016-09-01T02:56:20.270Z,960.02
2016-09-01T02:57:22.273Z,960.02
2016-09-01T02:58:25.687Z,959.99
2016-09-01T02:59:27.880Z,960.02
2016-09-01T03:01:18.844Z,960.01
2016-09-01T03:02:26.133Z,959.99
2016-09-01T03:03:38.300Z,960.03
2016-09-01T03:04:23.460Z,960.02
2016-09-01T03:05:19.842Z,959.94
2016-09-01T03:06:19.623Z,959.96
2016-09-01T03:07:28.770Z,959.95
2016-09-01T03:08:20.883Z,959.93
2016-09-01T03:09:27.509Z,959.90
2016-09-01T03:10:19.922Z,959.91
2016-09-01T03:11:33.843Z,959.87
2016-09-01T03:12:22.534Z,959.83
2016-09-01T03:13:26.738Z,959.83
2016-09-01T03:14:28.847Z,959.84
2016-09-01T03:15:27.008Z,959.85
2016-09-01T03:16:32.992Z,959.86
2016-09-01T03:17:19.629Z,959.87
2016-09-01T03:18:18.928Z,959.85
2016-09-01T03:19:19.336Z,959.83
2016-09-01T03:20:27.563Z,959.85
2016-09-01T03:21:23.223Z,959.97
2016-09-01T03:22:28.267Z,959.95
2016-09-01T03:23:26.410Z,959.99
2016-09-01T03:24:21.710Z,960.07
2016-09-01T03:25:45.812Z,960.03
2016-09-01T03:26:18.339Z,960.06
2016-09-01T03:27:30.280Z,960.04
2016-09-01T03:28:20.137Z,960.04
2016-09-01T03:29:20.047Z,960.02
2016-09-01T03:30:22.085Z,960.01
2016-09-01T03:31:31.759Z,960.02
2016-09-01T03:32:34.767Z,960.06
2016-09-01T03:33:27.912Z,960.03
2016-09-01T03:34:36.580Z,960.07
2016-09-01T03:35:32.097Z,960.11
2016-09-01T03:36:25.300Z,960.11
2016-09-01T03:37:28.212Z,960.14
2016-09-01T03:38:18.432Z,960.14
2016-09-01T03:39:20.540Z,960.20
2016-09-01T03:40:32.702Z,960.24
2016-09-01T03:41:22.507Z,960.28
2016-09-01T03:42:27.445Z,960.30
2016-09-01T03:43:20.308Z,960.36
2016-09-01T03:44:19.956Z,960.31
2016-09-01T03:45:32.185Z,960.33
2016-09-01T03:46:29.956Z,960.36
2016-09-01T03:47:19.753Z,960.34
2016-09-01T03:48:28.953Z,960.30
2016-09-01T03:49:31.071Z,960.29
2016-09-01T03:50:26.715Z,960.25
2016-09-01T03:51:26.739Z,960.28
2016-09-01T03:52:33.965Z,960.28
2016-09-01T03:53:23.090Z,960.30
2016-09-01T03:54:31.664Z,960.31
2016-09-01T03:55:28.165Z,960.31
2016-09-01T03:56:22.900Z,960.33
2016-09-01T03:57:28.240Z,960.36
2016-09-01T03:58:32.719Z,960.34
2016-09-01T03:59:28.987Z,960.37
2016-09-01T04:00:23.981Z,960.33
2016-09-01T04:01:31.892Z,960.36
2016-09-01T04:02:19.712Z,960.34
2016-09-01T04:03:17.952Z,960.36
2016-09-01T04:04:33.974Z,960.37
2016-09-01T04:05:28.326Z,960.38
2016-09-01T04:06:26.905Z,960.37
2016-09-01T04:07:21.706Z,960.35
2016-09-01T04:08:26.781Z,960.39
2016-09-01T04:09:19.852Z,960.41
2016-09-01T04:10:28.109Z,960.43
2016-09-01T04:11:28.173Z,960.47
2016-09-01T04:12:25.946Z,960.50
2016-09-01T04:13:26.874Z,960.50
2016-09-01T04:14:28.583Z,960.46
2016-09-01T04:15:26.913Z,960.46
2016-09-01T04:16:51.753Z,960.46
2016-09-01T04:17:28.264Z,960.45
2016-09-01T04:18:27.613Z,960.51
2016-09-01T04:19:27.291Z,960.49
2016-09-01T04:20:28.572Z,960.47
2016-09-01T04:21:22.913Z,960.44
2016-09-01T04:22:27.315Z,960.45
2016-09-01T04:23:18.734Z,960.45
2016-09-01T04:24:26.628Z,960.46
2016-09-01T04:25:27.576Z,960.44
2016-09-01T04:26:33.400Z,960.45
2016-09-01T04:27:30.437Z,960.44
2016-09-01T04:28:19.536Z,960.46
2016-09-01T04:29:26.777Z,960.48
2016-09-01T04:30:19.458Z,960.44
2016-09-01T04:31:38.676Z,960.45
2016-09-01T04:32:20.867Z,960.45
2016-09-01T04:33:28.063Z,960.42
2016-09-01T04:34:28.025Z,960.42
2016-09-01T04:36:20.950Z,960.39
2016-09-01T04:37:30.959Z,960.42
2016-09-01T04:38:33.791Z,960.43
2016-09-01T04:39:38.899Z,960.44
2016-09-01T04:40:19.009Z,960.43
2016-09-01T04:41:32.153Z,960.45
2016-09-01T04:42:29.089Z,960.46
2016-09-01T04:43:25.798Z,960.41
2016-09-01T04:44:21.139Z,960.37
2016-09-01T04:45:27.293Z,960.36
2016-09-01T04:46:28.053Z,960.35
2016-09-01T04:47:34.242Z,960.31
2016-09-01T04:48:20.442Z,960.32
2016-09-01T04:49:44.673Z,960.31
2016-09-01T04:50:34.869Z,960.28
2016-09-01T04:51:23.351Z,960.27
2016-09-01T04:52:17.862Z,960.26
2016-09-01T04:53:23.154Z,960.24
2016-09-01T04:54:18.055Z,960.25
2016-09-01T04:55:34.433Z,960.31
2016-09-01T04:56:29.066Z,960.33
2016-09-01T04:57:25.838Z,960.32
2016-09-01T04:58:14.050Z,960.37
2016-09-01T04:59:33.537Z,960.46
2016-09-01T05:00:30.473Z,960.43
2016-09-01T05:01:24.406Z,960.45
2016-09-01T05:02:28.485Z,960.43
2016-09-01T05:03:27.968Z,960.46
2016-09-01T05:04:28.475Z,960.48
2016-09-01T05:05:34.048Z,960.48
2016-09-01T05:06:17.834Z,960.55
2016-09-01T05:07:28.719Z,960.56
2016-09-01T05:08:19.708Z,960.53
2016-09-01T05:09:20.636Z,960.56
2016-09-01T05:10:28.347Z,960.51
2016-09-01T05:11:27.509Z,960.47
2016-09-01T05:12:16.069Z,960.47
2016-09-01T05:13:28.687Z,960.58
2016-09-01T05:14:33.363Z,960.69
2016-09-01T05:16:17.180Z,960.73
2016-09-01T05:17:29.037Z,960.66
2016-09-01T05:18:21.715Z,960.73
2016-09-01T05:20:22.336Z,960.66
2016-09-01T05:21:25.400Z,960.67
2016-09-01T05:23:27.249Z,960.69
2016-09-01T05:24:27.429Z,960.67
2016-09-01T05:25:16.965Z,960.67
2016-09-01T05:26:12.874Z,960.69
2016-09-01T05:28:32.491Z,960.68
2016-09-01T05:30:21.022Z,960.70
2016-09-01T05:31:21.571Z,960.74
2016-09-01T05:32:21.013Z,960.73
2016-09-01T05:33:25.522Z,960.80
2016-09-01T05:34:19.262Z,960.79
2016-09-01T05:35:34.427Z,960.80
2016-09-01T05:36:28.738Z,960.78
2016-09-01T05:38:19.408Z,960.84
2016-09-01T05:39:28.018Z,960.84
2016-09-01T05:40:27.339Z,960.80
2016-09-01T05:43:18.296Z,960.83
2016-09-01T05:44:21.247Z,960.81
2016-09-01T05:45:28.793Z,960.82
2016-09-01T05:47:27.564Z,960.79
2016-09-01T05:48:25.316Z,960.78
2016-09-01T05:49:24.564Z,960.76
2016-09-01T05:50:28.645Z,960.78
2016-09-01T05:51:27.978Z,960.76
2016-09-01T05:52:22.322Z,960.76
2016-09-01T05:54:22.726Z,960.69
2016-09-01T05:56:39.726Z,960.68
2016-09-01T05:57:34.521Z,960.74
2016-09-01T05:58:33.968Z,960.72
2016-09-01T05:59:29.161Z,960.77
2016-09-01T06:00:23.029Z,960.79
2016-09-01T06:01:27.855Z,960.85
2016-09-01T06:03:28.845Z,960.86
2016-09-01T06:04:19.724Z,960.84
2016-09-01T06:05:23.180Z,960.87
2016-09-01T06:06:38.163Z,960.85
2016-09-01T06:07:27.575Z,960.89
2016-09-01T06:08:24.823Z,960.90
2016-09-01T06:09:29.337Z,960.93
2016-09-01T06:10:36.045Z,960.97
2016-09-01T06:11:28.680Z,960.96
2016-09-01T06:12:29.796Z,960.97
2016-09-01T06:13:27.122Z,960.97
2016-09-01T06:14:27.244Z,960.99
2016-09-01T06:15:20.283Z,961.00
2016-09-01T06:16:33.368Z,961.00
2016-09-01T06:17:27.737Z,961.01
2016-09-01T06:18:27.568Z,961.00
2016-09-01T06:19:27.889Z,961.01
2016-09-01T06:22:28.040Z,960.99
2016-09-01T06:23:26.717Z,960.96
2016-09-01T06:24:28.030Z,960.96
2016-09-01T06:25:18.805Z,960.96
2016-09-01T06:26:31.586Z,961.00
2016-09-01T06:27:23.780Z,960.98
2016-09-01T06:28:29.070Z,961.02
2016-09-01T06:29:33.743Z,961.01
2016-09-01T06:30:34.694Z,961.03
2016-09-01T06:31:38.788Z,961.04
2016-09-01T06:32:28.133Z,961.04
2016-09-01T06:33:24.620Z,961.09
2016-09-01T06:34:33.120Z,961.03
2016-09-01T06:35:21.675Z,961.07
2016-09-01T06:36:31.602Z,961.11
2016-09-01T06:37:27.781Z,961.06
2016-09-01T06:38:27.655Z,961.07
2016-09-01T06:39:23.344Z,961.09
2016-09-01T06:42:27.305Z,961.05
2016-09-01T06:43:17.834Z,961.14
2016-09-01T06:44:18.216Z,961.13
2016-09-01T06:45:27.099Z,961.14
2016-09-01T06:46:26.948Z,961.20
2016-09-01T06:47:19.782Z,961.19
2016-09-01T06:48:19.895Z,961.18
2016-09-01T06:49:20.872Z,961.20
2016-09-01T06:50:20.022Z,961.21
2016-09-01T06:51:19.185Z,961.23
2016-09-01T06:52:33.356Z,961.26
2016-09-01T06:53:29.542Z,961.29
2016-09-01T06:54:24.326Z,961.33
2016-09-01T06:55:17.874Z,961.31
2016-09-01T06:56:19.010Z,961.31
2016-09-01T06:57:27.077Z,961.28
2016-09-01T06:58:23.458Z,961.35
2016-09-01T06:59:19.855Z,961.37
2016-09-01T07:00:19.681Z,961.36
2016-09-01T07:01:26.873Z,961.39
2016-09-01T07:02:23.759Z,961.43
2016-09-01T07:03:21.044Z,961.45
2016-09-01T07:04:19.367Z,961.41
2016-09-01T07:05:26.941Z,961.46
2016-09-01T07:06:18.586Z,961.48
2016-09-01T07:07:27.871Z,961.50
2016-09-01T07:08:28.020Z,961.51
2016-09-01T07:09:19.706Z,961.51
2016-09-01T07:10:23.878Z,961.53
2016-09-01T07:11:23.495Z,961.52
2016-09-01T07:12:19.774Z,961.59
2016-09-01T07:13:26.853Z,961.65
2016-09-01T07:14:24.837Z,961.59
2016-09-01T07:15:18.881Z,961.66
2016-09-01T07:16:17.377Z,961.64
2016-09-01T07:17:33.385Z,961.66
2016-09-01T07:18:26.874Z,961.66
2016-09-01T07:19:27.729Z,961.63
2016-09-01T07:20:23.550Z,961.77
2016-09-01T07:21:20.104Z,961.66
2016-09-01T07:22:34.633Z,961.68
2016-09-01T07:23:20.842Z,961.70
2016-09-01T07:25:26.882Z,961.75
2016-09-01T07:27:22.421Z,961.74
2016-09-01T07:28:28.334Z,961.77
2016-09-01T07:30:19.757Z,961.75
2016-09-01T07:31:34.038Z,961.78
2016-09-01T07:32:26.695Z,961.75
2016-09-01T07:33:25.885Z,961.84
2016-09-01T07:34:18.432Z,961.78
2016-09-01T07:35:27.268Z,961.81
2016-09-01T07:36:22.099Z,961.80
2016-09-01T07:37:28.637Z,961.89
2016-09-01T07:38:27.993Z,961.81
2016-09-01T07:39:23.286Z,961.87
2016-09-01T07:40:33.853Z,961.85
2016-09-01T07:41:27.344Z,961.85
2016-09-01T07:42:28.597Z,961.89
2016-09-01T07:43:25.285Z,961.88
2016-09-01T07:44:25.805Z,961.86
2016-09-01T07:45:27.305Z,961.89
2016-09-01T07:46:19.350Z,961.89
2016-09-01T07:47:24.966Z,961.89
2016-09-01T07:48:19.327Z,961.89
2016-09-01T07:49:33.055Z,961.96
2016-09-01T07:50:20.879Z,961.98
2016-09-01T07:51:18.690Z,961.99
2016-09-01T07:52:27.404Z,962.01
2016-09-01T07:53:27.545Z,962.02
2016-09-01T07:56:26.902Z,962.04
2016-09-01T07:57:25.399Z,962.07
2016-09-01T08:00:18.940Z,962.04
2016-09-01T08:01:20.005Z,962.03
2016-09-01T08:02:22.913Z,962.08
2016-09-01T08:03:25.210Z,962.06
2016-09-01T08:04:17.329Z,962.07
2016-09-01T08:05:17.672Z,962.13
2016-09-01T08:06:51.549Z,962.12
2016-09-01T08:07:21.289Z,962.10
2016-09-01T08:08:27.410Z,962.12
2016-09-01T08:09:37.619Z,962.11
2016-09-01T08:11:27.361Z,962.10
2016-09-01T08:13:28.954Z,962.08
2016-09-01T08:14:28.018Z,962.04
2016-09-01T08:15:27.393Z,962.09
2016-09-01T08:16:19.498Z,962.08
2016-09-01T08:17:18.447Z,962.05
2016-09-01T08:18:21.387Z,962.10
2016-09-01T08:19:26.849Z,962.06
2016-09-01T08:20:33.132Z,962.08
2016-09-01T08:21:27.299Z,962.06
2016-09-01T08:22:22.767Z,962.12
2016-09-01T08:23:22.981Z,962.11
2016-09-01T08:24:28.183Z,962.04
2016-09-01T08:25:28.328Z,962.12
2016-09-01T08:26:18.524Z,962.06
2016-09-01T08:27:33.570Z,962.06
2016-09-01T08:29:21.042Z,962.09
2016-09-01T08:31:27.286Z,962.09
2016-09-01T08:32:22.209Z,962.09
2016-09-01T08:33:26.420Z,962.07
2016-09-01T08:34:31.854Z,962.07
2016-09-01T08:35:28.100Z,962.08
2016-09-01T08:37:19.374Z,962.10
2016-09-01T08:38:19.062Z,962.08
2016-09-01T08:39:20.841Z,962.06
2016-09-01T08:40:21.431Z,962.10
2016-09-01T08:41:22.226Z,962.16
2016-09-01T08:43:28.030Z,962.18
2016-09-01T08:44:19.474Z,962.15
2016-09-01T08:45:18.098Z,962.17
2016-09-01T08:46:21.806Z,962.15
2016-09-01T08:47:26.501Z,962.16
2016-09-01T08:48:18.599Z,962.17
2016-09-01T08:49:21.731Z,962.22
2016-09-01T08:52:28.783Z,962.14
2016-09-01T08:53:26.441Z,962.17
2016-09-01T08:54:31.991Z,962.18
2016-09-01T08:55:28.989Z,962.15
2016-09-01T08:56:31.228Z,962.13
2016-09-01T08:57:33.585Z,962.13
2016-09-01T09:01:27.169Z,962.13
2016-09-01T09:02:27.992Z,962.11
2016-09-01T09:03:28.094Z,962.11
2016-09-01T09:04:19.191Z,962.10
2016-09-01T09:05:27.452Z,962.10
2016-09-01T09:06:31.195Z,962.11
2016-09-01T09:07:24.579Z,962.13
2016-09-01T09:09:33.418Z,962.11
2016-09-01T09:10:24.816Z,962.14
2016-09-01T09:11:19.375Z,962.16
2016-09-01T09:12:25.432Z,962.12
2016-09-01T09:13:25.907Z,962.12
2016-09-01T09:14:28.008Z,962.08
2016-09-01T09:16:20.572Z,962.12
2016-09-01T09:17:28.701Z,962.09
2016-09-01T09:18:22.673Z,962.10
2016-09-01T09:19:18.353Z,962.08
2016-09-01T09:21:19.842Z,962.06
2016-09-01T09:22:19.695Z,962.06
2016-09-01T09:23:27.783Z,962.06
2016-09-01T09:24:23.421Z,962.06
2016-09-01T09:25:22.934Z,962.07
2016-09-01T09:26:29.767Z,962.05
2016-09-01T09:27:18.441Z,962.07
2016-09-01T09:28:31.604Z,962.04
2016-09-01T09:29:17.635Z,962.06
2016-09-01T09:30:29.790Z,962.03
2016-09-01T09:31:20.502Z,961.98
2016-09-01T09:32:32.301Z,961.99
2016-09-01T09:33:33.798Z,961.97
2016-09-01T09:34:17.704Z,962.03
2016-09-01T09:35:23.691Z,962.02
2016-09-01T09:36:18.888Z,961.96
2016-09-01T09:37:24.635Z,961.98
2016-09-01T09:38:18.698Z,961.97
2016-09-01T09:39:18.941Z,961.95
2016-09-01T09:40:17.868Z,962.02
2016-09-01T09:41:22.211Z,961.99
2016-09-01T09:42:30.080Z,962.00
2016-09-01T09:43:23.189Z,961.97
2016-09-01T09:44:23.065Z,962.00
2016-09-01T09:45:19.693Z,962.02
2016-09-01T09:46:29.098Z,961.97
2016-09-01T09:47:26.539Z,962.00
2016-09-01T09:48:23.097Z,962.08
2016-09-01T09:49:17.151Z,962.04
2016-09-01T09:50:16.996Z,962.02
2016-09-01T09:51:28.552Z,962.03
2016-09-01T09:52:19.377Z,962.06
2016-09-01T09:53:29.068Z,962.05
2016-09-01T09:54:22.935Z,962.03
2016-09-01T09:55:24.667Z,962.04
2016-09-01T09:56:19.562Z,962.05
2016-09-01T09:57:22.929Z,962.06
2016-09-01T09:58:23.011Z,962.07
2016-09-01T09:59:18.075Z,962.04
2016-09-01T10:00:18.224Z,962.06
2016-09-01T10:01:23.622Z,962.01
2016-09-01T10:02:22.059Z,962.04
2016-09-01T10:03:17.486Z,962.05
2016-09-01T10:04:21.353Z,962.04
2016-09-01T10:06:17.546Z,961.99
2016-09-01T10:07:11.399Z,962.01
2016-09-01T10:08:14.109Z,962.07
2016-09-01T10:09:12.979Z,962.01
2016-09-01T10:10:21.470Z,962.01
2016-09-01T10:11:18.944Z,961.98
2016-09-01T10:12:10.643Z,961.99
2016-09-01T10:13:11.593Z,962.00
2016-09-01T10:14:09.022Z,962.01
2016-09-01T10:15:36.483Z,961.97
2016-09-01T10:16:13.089Z,961.98
2016-09-01T10:17:19.251Z,962.02
2016-09-01T10:18:25.710Z,962.01
2016-09-01T10:19:25.817Z,961.97
2016-09-01T10:20:38.069Z,961.91
2016-09-01T10:22:24.483Z,961.89
2016-09-01T10:24:18.296Z,961.89
2016-09-01T10:25:17.689Z,961.95
2016-09-01T10:26:12.610Z,961.91
2016-09-01T10:27:30.271Z,961.92
2016-09-01T10:28:27.319Z,961.91
2016-09-01T10:29:17.886Z,961.89
2016-09-01T10:30:24.866Z,961.92
2016-09-01T10:31:22.985Z,961.84
2016-09-01T10:32:23.571Z,961.88
2016-09-01T10:33:27.579Z,961.83
2016-09-01T10:34:32.279Z,961.83
2016-09-01T10:35:33.940Z,961.81
2016-09-01T10:36:25.197Z,961.81
2016-09-01T10:37:24.833Z,961.79
2016-09-01T10:38:20.000Z,961.76
2016-09-01T10:39:17.861Z,961.75
2016-09-01T10:40:33.731Z,961.75
2016-09-01T10:41:23.024Z,961.72
2016-09-01T10:42:16.972Z,961.72
2016-09-01T10:43:28.541Z,961.71
2016-09-01T10:44:18.702Z,961.69
2016-09-01T10:45:33.719Z,961.74
2016-09-01T10:46:18.792Z,961.73
2016-09-01T10:47:23.330Z,961.72
2016-09-01T10:48:27.952Z,961.71
2016-09-01T10:49:24.021Z,961.72
2016-09-01T10:50:28.166Z,961.71
2016-09-01T10:51:31.374Z,961.70
2016-09-01T10:52:18.671Z,961.70
2016-09-01T10:53:22.679Z,961.70
2016-09-01T10:54:28.918Z,961.69
2016-09-01T10:55:30.457Z,961.69
2016-09-01T10:57:35.203Z,961.70
2016-09-01T10:58:17.568Z,961.71
2016-09-01T10:59:26.679Z,961.69
2016-09-01T11:01:35.399Z,961.72
2016-09-01T11:03:16.600Z,961.67
2016-09-01T11:04:17.324Z,961.66
2016-09-01T11:06:01.546Z,961.68
2016-09-01T11:06:29.561Z,961.69
2016-09-01T11:07:23.904Z,961.72
2016-09-01T11:08:23.745Z,961.73
2016-09-01T11:09:18.921Z,961.71
2016-09-01T11:10:23.849Z,961.67
2016-09-01T11:11:20.194Z,961.70
2016-09-01T11:12:25.157Z,961.69
2016-09-01T11:13:19.648Z,961.71
2016-09-01T11:14:20.283Z,961.64
2016-09-01T11:15:17.555Z,961.64
2016-09-01T11:16:18.633Z,961.63
2016-09-01T11:17:17.364Z,961.63
2016-09-01T11:18:19.228Z,961.58
2016-09-01T11:19:18.932Z,961.64
2016-09-01T11:20:17.358Z,961.60
2016-09-01T11:21:19.360Z,961.66
2016-09-01T11:22:17.271Z,961.60
2016-09-01T11:24:15.763Z,961.63
2016-09-01T11:25:19.375Z,961.62
2016-09-01T11:26:39.778Z,961.60
2016-09-01T11:27:19.589Z,961.60
2016-09-01T11:28:24.760Z,961.60
2016-09-01T11:29:14.107Z,961.55
2016-09-01T11:30:10.747Z,961.62
2016-09-01T11:31:19.544Z,961.58
2016-09-01T11:32:19.767Z,961.56
2016-09-01T11:33:20.091Z,961.57
2016-09-01T11:34:26.177Z,961.55
2016-09-01T11:35:27.350Z,961.55
2016-09-01T11:37:26.089Z,961.54
2016-09-01T11:38:22.976Z,961.49
2016-09-01T11:39:22.232Z,961.53
2016-09-01T11:40:14.241Z,961.51
2016-09-01T11:41:23.913Z,961.50
2016-09-01T11:42:18.482Z,961.50
2016-09-01T11:45:19.271Z,961.48
2016-09-01T11:46:11.819Z,961.47
2016-09-01T11:47:22.551Z,961.48
2016-09-01T11:49:41.173Z,961.49
2016-09-01T11:50:29.410Z,961.48
2016-09-01T11:51:18.102Z,961.45
2016-09-01T11:53:18.090Z,961.47
2016-09-01T11:54:26.748Z,961.43
2016-09-01T11:57:20.549Z,961.43
2016-09-01T11:58:26.748Z,961.37
2016-09-01T11:59:28.510Z,961.39
2016-09-01T12:00:26.747Z,961.40
2016-09-01T12:02:18.154Z,961.38
2016-09-01T12:03:25.621Z,961.39
2016-09-01T12:04:14.464Z,961.39
2016-09-01T12:05:18.019Z,961.41
2016-09-01T12:06:23.087Z,961.34
2016-09-01T12:07:20.076Z,961.38
2016-09-01T12:08:27.251Z,961.31
2016-09-01T12:09:19.257Z,961.34
2016-09-01T12:10:16.864Z,961.30
2016-09-01T12:11:42.823Z,961.33
2016-09-01T12:12:18.004Z,961.35
2016-09-01T12:13:24.437Z,961.29
2016-09-01T12:14:18.053Z,961.30
2016-09-01T12:15:27.065Z,961.28
2016-09-01T12:16:26.891Z,961.30
2016-09-01T12:17:27.164Z,961.27
2016-09-01T12:18:22.334Z,961.20
2016-09-01T12:19:20.128Z,961.22
2016-09-01T12:20:22.392Z,961.22
2016-09-01T12:21:17.706Z,961.22
2016-09-01T12:22:17.392Z,961.26
2016-09-01T12:23:21.025Z,961.14
2016-09-01T12:24:28.355Z,961.14
2016-09-01T12:25:28.829Z,961.12
2016-09-01T12:26:20.018Z,961.15
2016-09-01T12:27:28.702Z,961.16
2016-09-01T12:28:17.243Z,961.16
2016-09-01T12:29:19.540Z,961.15
2016-09-01T12:30:17.821Z,961.10
2016-09-01T12:31:35.498Z,961.11
2016-09-01T12:32:18.487Z,961.09
2016-09-01T12:33:23.294Z,961.05
2016-09-01T12:34:17.106Z,961.02
2016-09-01T12:35:23.178Z,961.00
2016-09-01T12:36:20.269Z,961.02
2016-09-01T12:37:28.743Z,960.99
2016-09-01T12:38:28.349Z,961.01
2016-09-01T12:39:22.537Z,961.03
2016-09-01T12:40:23.163Z,960.99
2016-09-01T12:41:17.343Z,960.98
2016-09-01T12:42:11.969Z,960.96
2016-09-01T12:43:18.543Z,960.97
2016-09-01T12:44:23.486Z,960.95
2016-09-01T12:45:22.404Z,960.95
2016-09-01T12:46:22.231Z,960.98
2016-09-01T12:47:19.521Z,960.98
2016-09-01T12:48:18.418Z,961.00
2016-09-01T12:49:17.561Z,961.03
2016-09-01T12:50:22.472Z,960.99
2016-09-01T12:51:22.430Z,961.02
2016-09-01T12:52:23.484Z,960.98
2016-09-01T12:53:17.375Z,960.99
2016-09-01T12:54:20.104Z,960.97
2016-09-01T12:55:18.278Z,960.98
2016-09-01T12:56:22.537Z,960.96
2016-09-01T12:57:28.525Z,960.96
2016-09-01T12:58:23.344Z,960.96
2016-09-01T12:59:17.989Z,960.94
2016-09-01T13:00:17.951Z,960.97
2016-09-01T13:01:30.427Z,960.99
2016-09-01T13:02:17.633Z,961.01
2016-09-01T13:03:21.210Z,960.95
2016-09-01T13:04:24.190Z,960.96
2016-09-01T13:05:18.216Z,960.98
2016-09-01T13:06:17.281Z,960.92
2016-09-01T13:07:27.182Z,960.97
2016-09-01T13:08:17.352Z,960.94
2016-09-01T13:09:40.202Z,960.93
2016-09-01T13:10:18.645Z,960.91
2016-09-01T13:11:23.539Z,960.89
2016-09-01T13:12:21.127Z,960.87
2016-09-01T13:14:20.993Z,960.87
2016-09-01T13:15:22.945Z,960.84
2016-09-01T13:16:17.875Z,960.85
2016-09-01T13:17:15.935Z,960.82
2016-09-01T13:18:17.713Z,960.79
2016-09-01T13:19:17.750Z,960.83
2016-09-01T13:20:17.445Z,960.81
2016-09-01T13:21:17.974Z,960.78
2016-09-01T13:22:16.723Z,960.81
2016-09-01T13:23:17.550Z,960.80
2016-09-01T13:24:17.554Z,960.75
2016-09-01T13:25:17.636Z,960.71